LH394 / D-ACNA 7700 Squawk Report (11th of December, 2019)

Aircraft CRJ9 Reg No. D-ACNA Age 10 years old
Model Regional-Jet Jet engines 2 First flight 15-04-09
Registered 30-01-15 Rollout 03-09 Delivered 24-04-09
Construction No. 15229 Line No. N/A Series 900
ADSHEX 3C4DC1 Airline name Lufthansa Regional Owner Lufthansa Cityline
Airfield based Munich~Bayern~D First tracked 2017-07-13 05:30:00
Time Lat Lon Altitude Heading Speed Vertical Rate
2019-12-11 12:45:41 GMT 50.047009 8.594946 625 284 332 960
2019-12-11 12:45:26 GMT 50.049755 8.607417 750 284 332 960
2019-12-11 12:45:19 GMT 50.051849 8.614617 900 284 332 960
2019-12-11 12:45:04 GMT 50.054550 8.626420 1,000 284 332 960
2019-12-11 12:45:00 GMT 50.060135 8.648319 1,175 284 332 960
2019-12-11 12:44:44 GMT 50.060135 8.648319 1,275 284 332 960
2019-12-11 12:44:29 GMT 50.063160 8.661235 1,600 284 332 960
2019-12-11 12:44:13 GMT 50.065254 8.671479 1,750 284 332 960
2019-12-11 12:44:10 GMT 50.070004 8.687810 1,875 284 332 960
2019-12-11 12:44:00 GMT 50.070004 8.687810 1,975 284 332 960
2019-12-11 12:43:46 GMT 50.074890 8.698945 2,125 284 332 960
2019-12-11 12:43:39 GMT 50.078663 8.703250 2,250 284 332 960
2019-12-11 12:43:27 GMT 50.084202 8.706888 2,475 284 332 960
2019-12-11 12:43:16 GMT 50.090672 8.709560 2,650 284 332 960
2019-12-11 12:43:06 GMT 50.097282 8.710599 2,775 284 332 960
2019-12-11 12:43:00 GMT 50.099846 8.710896 2,900 284 332 960
2019-12-11 12:42:41 GMT 50.113159 8.701246 2,875 284 332 960
2019-12-11 12:42:32 GMT 50.115299 8.682465 2,900 284 332 960
2019-12-11 12:42:24 GMT 50.115299 8.682465 2,900 284 332 960
2019-12-11 12:42:16 GMT 50.110691 8.665541 2,900 284 332 960
2019-12-11 12:42:04 GMT 50.102032 8.656336 2,900 284 332 960
2019-12-11 12:41:57 GMT 50.095284 8.654035 2,925 284 332 960
2019-12-11 12:41:43 GMT 50.085228 8.657523 2,875 284 332 960
2019-12-11 12:41:36 GMT 50.079872 8.663759 2,875 284 332 960
2019-12-11 12:41:22 GMT 50.076008 8.680535 2,900 284 332 960
2019-12-11 12:41:17 GMT 50.076893 8.688478 2,875 284 332 960
2019-12-11 12:41:06 GMT 50.083412 8.702434 2,875 284 332 960
2019-12-11 12:40:57 GMT 50.087276 8.708075 2,875 284 332 960
2019-12-11 12:40:45 GMT 50.095608 8.719730 2,875 284 332 960
2019-12-11 12:40:35 GMT 50.103893 8.731459 2,875 284 332 960
2019-12-11 12:40:27 GMT 50.110085 8.740738 2,900 284 332 960
2019-12-11 12:40:08 GMT 50.128475 8.752466 2,950 284 332 960
2019-12-11 12:39:59 GMT 50.139832 8.748829 3,075 284 332 960
2019-12-11 12:39:38 GMT 50.168976 8.727450 3,625 284 332 960
2019-12-11 12:39:21 GMT 50.184753 8.703918 4,025 284 332 960
2019-12-11 12:39:17 GMT 50.199371 8.675785 4,400 284 332 960
2019-12-11 12:39:08 GMT 50.199371 8.675785 4,675 284 332 960
2019-12-11 12:39:01 GMT 50.208496 8.665466 4,875 284 332 960
2019-12-11 12:38:50 GMT 50.211430 8.646611 5,100 284 332 960
2019-12-11 12:38:47 GMT 50.214500 8.638669 5,250 284 332 960
2019-12-11 12:38:42 GMT 50.216923 8.623971 5,450 284 332 960
2019-12-11 12:38:33 GMT 50.219528 8.606303 5,550 284 332 960
2019-12-11 12:38:28 GMT 50.222324 8.589007 5,725 284 332 960
2019-12-11 12:38:18 GMT 50.223812 8.576759 5,875 284 332 960
2019-12-11 12:38:11 GMT 50.226604 8.545211 5,975 284 332 960
2019-12-11 12:38:05 GMT 50.227631 8.530810 6,025 284 332 960
2019-12-11 12:38:01 GMT 50.229584 8.515963 6,175 284 332 960
2019-12-11 12:37:57 GMT 50.228420 8.512252 6,225 284 332 960
2019-12-11 12:37:47 GMT 50.231354 8.483004 6,425 284 332 960
2019-12-11 12:37:36 GMT 50.233681 8.453163 6,525 284 332 960
2019-12-11 12:37:31 GMT 50.234844 8.442028 6,550 284 332 960
2019-12-11 12:37:26 GMT 50.235077 8.428666 6,700 284 332 960
2019-12-11 12:37:20 GMT 50.239689 8.384127 6,875 284 332 960
2019-12-11 12:37:11 GMT 50.239689 8.384127 7,000 284 332 960
2019-12-11 12:36:58 GMT 50.242901 8.350797 7,025 284 332 960
2019-12-11 12:36:51 GMT 50.241966 8.345898 7,000 284 332 960
2019-12-11 12:36:46 GMT 50.247787 8.294232 7,000 284 332 960
2019-12-11 12:36:36 GMT 50.247787 8.294232 7,000 284 332 960
2019-12-11 12:36:31 GMT 50.249416 8.284211 7,050 284 332 960
2019-12-11 12:36:23 GMT 50.248440 8.266544 7,075 284 332 960
2019-12-11 12:36:18 GMT 50.251511 8.247392 7,175 284 332 960
2019-12-11 12:36:13 GMT 50.249882 8.240414 7,250 284 332 960
2019-12-11 12:36:06 GMT 50.251606 8.221337 7,350 284 332 960
2019-12-11 12:35:59 GMT 50.251045 8.182142 7,575 284 332 960
2019-12-11 12:35:49 GMT 50.251045 8.182142 7,650 284 332 960
2019-12-11 12:35:44 GMT 50.250626 8.169374 7,725 284 332 960
2019-12-11 12:35:35 GMT 50.249184 8.134411 7,975 284 332 960
2019-12-11 12:35:25 GMT 50.247509 8.103679 8,000 284 332 960
2019-12-11 12:35:12 GMT 50.246391 8.065004 8,000 284 332 960
2019-12-11 12:35:07 GMT 50.245785 8.051123 8,025 284 332 960
2019-12-11 12:34:54 GMT 50.244297 8.011928 8,000 284 332 960
2019-12-11 12:34:47 GMT 50.243504 7.995078 8,000 284 332 960
2019-12-11 12:34:36 GMT 50.243412 7.982161 8,000 284 332 960
2019-12-11 12:34:23 GMT 50.241035 7.937251 8,000 284 332 960
2019-12-11 12:34:17 GMT 50.240105 7.914536 8,025 284 332 960
2019-12-11 12:34:04 GMT 50.238197 7.875416 8,000 284 332 960
2019-12-11 12:33:56 GMT 50.237499 7.859233 8,000 284 332 960
2019-12-11 12:33:44 GMT 50.236382 7.822934 8,000 284 332 960
2019-12-11 12:33:37 GMT 50.233681 7.807048 8,000 284 332 960
2019-12-11 12:33:32 GMT 50.233589 7.793018 8,000 284 332 960
2019-12-11 12:33:21 GMT 50.234798 7.762064 8,000 284 332 960
2019-12-11 12:33:14 GMT 50.233822 7.753007 8,000 284 332 960
2019-12-11 12:33:01 GMT 50.231495 7.705425 8,000 284 332 960
2019-12-11 12:32:54 GMT 50.233028 7.683303 8,025 284 332 960
2019-12-11 12:32:44 GMT 50.228283 7.666007 8,000 284 332 960
2019-12-11 12:32:33 GMT 50.227211 7.624586 8,000 284 332 960
2019-12-11 12:32:24 GMT 50.222927 7.615901 8,025 284 332 960
2019-12-11 12:32:13 GMT 50.224697 7.570471 8,025 284 332 960
2019-12-11 12:32:04 GMT 50.221718 7.511308 8,000 284 332 960
2019-12-11 12:31:54 GMT 50.221718 7.511308 8,000 284 332 960
2019-12-11 12:31:39 GMT 50.220089 7.480873 8,000 284 332 960
2019-12-11 12:31:34 GMT 50.219715 7.467288 8,000 284 332 960
2019-12-11 12:31:23 GMT 50.218597 7.434923 8,000 284 332 960
2019-12-11 12:31:09 GMT 50.217484 7.396471 8,000 284 332 960
2019-12-11 12:31:02 GMT 50.216179 7.377987 8,000 284 332 960
2019-12-11 12:30:50 GMT 50.214596 7.344509 8,000 284 332 960
2019-12-11 12:30:40 GMT 50.212872 7.324169 8,000 284 332 960
2019-12-11 12:30:33 GMT 50.213387 7.311327 8,000 284 332 960
2019-12-11 12:30:15 GMT 50.211338 7.250383 8,000 284 332 960
2019-12-11 12:30:08 GMT 50.213154 7.238728 8,000 284 332 960
2019-12-11 12:29:50 GMT 50.211571 7.165461 8,000 284 332 960
2019-12-11 12:29:39 GMT 50.211571 7.165461 8,000 284 332 960
2019-12-11 12:29:27 GMT 50.203098 7.131389 8,000 284 332 960
2019-12-11 12:29:21 GMT 50.205097 7.114835 8,000 284 332 960
2019-12-11 12:29:07 GMT 50.201794 7.048917 8,025 284 332 960
2019-12-11 12:28:57 GMT 50.201794 7.048917 8,000 284 332 960
2019-12-11 12:28:50 GMT 50.201748 7.029097 8,000 284 332 960
2019-12-11 12:28:31 GMT 50.208126 6.970677 8,000 284 332 960
2019-12-11 12:28:22 GMT 50.193741 6.951376 8,000 284 332 960
2019-12-11 12:28:08 GMT 50.187222 6.914706 8,000 75 400 -1984
2019-12-11 12:27:52 GMT 50.209194 6.846561 8,000 75 400 -1984
2019-12-11 12:27:37 GMT 50.184338 6.826667 8,000 75 400 -1984
2019-12-11 12:27:26 GMT 50.194344 6.794821 8,000 75 400 -1984
2019-12-11 12:27:23 GMT 50.190620 6.784280 8,025 75 400 -1984
2019-12-11 12:27:19 GMT 50.178658 6.783835 8,050 75 400 -1984
2019-12-11 12:27:11 GMT 50.178005 6.747907 8,075 75 400 -1984
2019-12-11 12:27:03 GMT 50.171581 6.717175 8,175 75 400 -1984
2019-12-11 12:26:54 GMT 50.170605 6.704629 8,575 75 400 -1984
2019-12-11 12:26:43 GMT 50.165112 6.671670 8,800 75 400 -1984
2019-12-11 12:26:38 GMT 50.163437 6.660090 8,900 75 400 -1984
2019-12-11 12:26:24 GMT 50.151798 6.630323 9,225 75 400 -1984
2019-12-11 12:26:18 GMT 50.154915 6.612656 9,600 75 400 -1984
2019-12-11 12:26:12 GMT 50.142159 6.590164 9,875 75 400 -1984
2019-12-11 12:26:04 GMT 50.137646 6.560174 10,550 75 400 -1984
2019-12-11 12:25:47 GMT 50.138248 6.517416 10,650 55 444 -1920
2019-12-11 12:25:30 GMT 50.135365 6.481711 11,275 55 444 -1920
2019-12-11 12:25:11 GMT 50.118092 6.400575 11,925 55 444 -1920
2019-12-11 12:24:58 GMT 50.116093 6.380013 12,225 55 444 -1920
2019-12-11 12:24:51 GMT 50.112881 6.360119 12,675 55 444 -1920
2019-12-11 12:24:40 GMT 50.108643 6.336810 12,950 55 444 -1920
2019-12-11 12:24:26 GMT 50.103802 6.271115 13,350 55 444 -1920
2019-12-11 12:24:21 GMT 50.103802 6.271115 13,600 55 444 -1920
2019-12-11 12:24:09 GMT 50.094955 6.251963 14,100 55 444 -1920
2019-12-11 12:23:59 GMT 50.089790 6.222344 14,500 55 444 -1920
2019-12-11 12:23:47 GMT 50.083084 6.131336 14,725 55 444 -1920
2019-12-11 12:23:35 GMT 50.083084 6.131336 14,975 55 444 -1920
2019-12-11 12:23:29 GMT 50.078476 6.114337 15,325 284 332 960
2019-12-11 12:22:43 GMT 50.020798 5.989182 16,750 0 0 0
2019-12-11 12:22:32 GMT 50.011627 5.960380 16,950 284 332 960
2019-12-11 12:22:26 GMT 50.004738 5.952289 17,025 284 332 960
2019-12-11 12:22:05 GMT 49.961582 5.912723 17,000 284 332 960
2019-12-11 12:21:53 GMT 49.925831 5.906191 16,975 284 332 960
2019-12-11 12:21:43 GMT 49.925831 5.906191 16,825 284 332 960
2019-12-11 12:21:36 GMT 49.916988 5.907081 16,675 284 332 960
2019-12-11 12:21:24 GMT 49.895760 5.919033 16,525 284 332 960
2019-12-11 12:21:08 GMT 49.869411 5.949468 16,350 284 332 960
2019-12-11 12:21:03 GMT 49.865685 5.959118 16,000 284 332 960
2019-12-11 12:20:57 GMT 49.858704 5.975078 15,575 284 332 960
2019-12-11 12:20:44 GMT 49.856979 6.000391 15,050 284 332 960
2019-12-11 12:20:33 GMT 49.855911 6.031494 14,625 284 332 960
2019-12-11 12:20:26 GMT 49.857819 6.046192 14,350 284 332 960
2019-12-11 12:20:18 GMT 49.858562 6.069056 13,850 284 332 960
2019-12-11 12:20:06 GMT 49.863220 6.112258 13,425 284 332 960
2019-12-11 12:19:45 GMT 49.874298 6.149894 12,525 284 332 960
2019-12-11 12:19:33 GMT 49.874344 6.181962 12,075 284 332 960
2019-12-11 12:19:25 GMT 49.879700 6.212026 11,750 284 332 960
2019-12-11 12:19:12 GMT 49.882771 6.243501 11,450 284 332 960
2019-12-11 12:19:03 GMT 49.913635 6.364870 11,100 284 332 960
2019-12-11 12:18:36 GMT 49.913635 6.364870 10,250 284 332 960
2019-12-11 12:18:16 GMT 49.904930 6.379048 10,000 284 332 960
2019-12-11 12:18:03 GMT 49.909447 6.398942 10,000 284 332 960
2019-12-11 12:17:49 GMT 49.914707 6.430936 10,000 284 332 960
2019-12-11 12:17:44 GMT 49.917080 6.446228 10,000 284 332 960
2019-12-11 12:17:32 GMT 49.921551 6.477109 10,025 284 332 960
2019-12-11 12:17:24 GMT 49.924297 6.491213 10,025 284 332 960
2019-12-11 12:17:08 GMT 49.941101 6.526250 10,000 284 332 960
2019-12-11 12:17:03 GMT 49.959255 6.543695 10,000 284 332 960
2019-12-11 12:16:52 GMT 49.959255 6.543695 10,000 284 332 960
2019-12-11 12:16:42 GMT 49.972477 6.563218 10,000 284 332 960
2019-12-11 12:16:29 GMT 49.981743 6.589050 10,025 284 332 960
2019-12-11 12:16:24 GMT 49.983604 6.599740 10,000 284 332 960
2019-12-11 12:16:06 GMT 49.985371 6.638043 10,025 284 332 960
2019-12-11 12:16:01 GMT 49.985744 6.647025 10,025 284 332 960
2019-12-11 12:15:52 GMT 49.986816 6.671670 10,025 284 332 960
2019-12-11 12:15:35 GMT 49.985840 6.700844 10,000 284 332 960
2019-12-11 12:15:19 GMT 49.987232 6.732541 10,000 284 332 960
2019-12-11 12:15:09 GMT 49.987885 6.757037 10,000 284 332 960
2019-12-11 12:14:58 GMT 49.987839 6.770028 10,000 284 332 960
2019-12-11 12:14:48 GMT 49.988491 6.798013 10,000 284 332 960
2019-12-11 12:14:37 GMT 49.989143 6.811004 10,000 284 332 960
2019-12-11 12:14:27 GMT 49.990353 6.838692 10,000 284 332 960
2019-12-11 12:14:24 GMT 49.992214 6.872542 10,000 284 332 960
2019-12-11 12:14:06 GMT 49.992214 6.872542 10,000 284 332 960
2019-12-11 12:14:03 GMT 49.992729 6.874918 10,000 284 332 960
2019-12-11 12:13:39 GMT 49.990028 6.927845 10,000 284 332 960
2019-12-11 12:13:29 GMT 49.989841 6.943285 10,100 284 332 960
2019-12-11 12:13:19 GMT 49.981976 6.981812 10,250 284 332 960
2019-12-11 12:13:13 GMT 49.981976 6.981812 10,375 284 332 960
2019-12-11 12:13:03 GMT 49.979416 6.993911 10,575 284 332 960
2019-12-11 12:12:47 GMT 49.974201 7.035630 10,750 284 332 960
2019-12-11 12:12:43 GMT 49.974201 7.035630 10,975 284 332 960
2019-12-11 12:12:33 GMT 49.970802 7.053965 11,025 284 332 960
2019-12-11 12:12:27 GMT 49.969685 7.067846 11,050 284 332 960
2019-12-11 12:12:22 GMT 49.968147 7.075492 11,225 284 332 960
2019-12-11 12:12:12 GMT 49.966007 7.095535 11,350 284 332 960
2019-12-11 12:12:05 GMT 49.963120 7.106892 11,375 284 332 960
2019-12-11 12:12:01 GMT 49.962517 7.124337 11,500 284 332 960
2019-12-11 12:11:54 GMT 49.959953 7.129682 11,550 284 332 960
2019-12-11 12:11:51 GMT 49.960094 7.139480 11,650 284 332 960
2019-12-11 12:11:43 GMT 49.957722 7.156182 11,950 284 332 960
2019-12-11 12:11:38 GMT 49.954090 7.167614 12,000 284 332 960
2019-12-11 12:11:32 GMT 49.951714 7.182238 12,500 284 332 960
2019-12-11 12:11:19 GMT 49.944126 7.231528 12,700 284 332 960
2019-12-11 12:11:08 GMT 49.944126 7.231528 12,975 284 332 960
2019-12-11 12:11:02 GMT 49.942310 7.242885 13,375 284 332 960
2019-12-11 12:10:51 GMT 49.938354 7.270351 13,725 284 332 960
2019-12-11 12:10:42 GMT 49.935143 7.290765 13,950 284 332 960
2019-12-11 12:10:33 GMT 49.931789 7.311773 14,150 284 332 960
2019-12-11 12:10:27 GMT 49.929790 7.325283 14,475 284 332 960
2019-12-11 12:10:21 GMT 49.928207 7.336418 14,700 284 332 960
2019-12-11 12:10:16 GMT 49.926579 7.347107 15,025 284 332 960
2019-12-11 12:10:03 GMT 49.921177 7.387118 15,100 284 332 960
2019-12-11 12:09:59 GMT 49.921177 7.387118 15,400 284 332 960
2019-12-11 12:09:51 GMT 49.918850 7.403820 15,750 284 332 960
2019-12-11 12:09:43 GMT 49.915077 7.427500 15,875 284 332 960
2019-12-11 12:09:38 GMT 49.914009 7.436705 15,975 284 332 960
2019-12-11 12:09:32 GMT 49.912285 7.448285 16,000 284 332 960
2019-12-11 12:09:27 GMT 49.910610 7.459420 16,000 284 332 960
2019-12-11 12:09:19 GMT 49.907398 7.479166 16,000 284 332 960
2019-12-11 12:09:13 GMT 49.905209 7.492824 16,025 284 332 960
2019-12-11 12:08:55 GMT 49.898785 7.531796 16,000 284 325 0
2019-12-11 12:08:40 GMT 49.893387 7.563419 16,000 284 325 0
2019-12-11 12:08:35 GMT 49.891430 7.579304 16,000 176 209 2688
2019-12-11 12:08:29 GMT 49.891430 7.579304 16,000 176 209 2688
2019-12-11 12:08:20 GMT 49.888077 7.607216 16,000 176 209 2688
2019-12-11 12:08:14 GMT 49.885006 7.621023 16,000 176 209 2688
2019-12-11 12:08:01 GMT 49.876579 7.675064 16,000 176 209 2688
2019-12-11 12:07:50 GMT 49.876579 7.675064 16,000 176 209 2688
2019-12-11 12:07:30 GMT 49.869831 7.718861 16,025 176 209 2688
2019-12-11 12:07:10 GMT 49.863823 7.757313 16,000 176 209 2688
2019-12-11 12:07:06 GMT 49.862057 7.765033 16,000 176 209 2688
2019-12-11 12:06:54 GMT 49.857449 7.800664 16,000 176 209 2688
2019-12-11 12:06:46 GMT 49.850605 7.845055 16,000 176 209 2688
2019-12-11 12:06:31 GMT 49.846180 7.870888 16,000 176 209 2688
2019-12-11 12:06:23 GMT 49.846180 7.870888 16,000 176 209 2688
2019-12-11 12:06:16 GMT 49.843575 7.887664 16,000 176 209 2688
2019-12-11 12:05:58 GMT 49.837242 7.928566 16,000 176 209 2688
2019-12-11 12:05:45 GMT 49.833099 7.955067 16,000 176 209 2688
2019-12-11 12:05:35 GMT 49.829933 7.973105 16,000 176 209 2688
2019-12-11 12:05:27 GMT 49.821136 8.029224 15,975 176 209 2688
2019-12-11 12:05:15 GMT 49.821136 8.029224 15,800 176 209 2688
2019-12-11 12:05:08 GMT 49.817879 8.050232 15,675 176 209 2688
2019-12-11 12:04:59 GMT 49.814899 8.066711 15,500 176 209 2688
2019-12-11 12:04:48 GMT 49.811127 8.090688 15,300 176 209 2688
2019-12-11 12:04:38 GMT 49.807682 8.115779 15,125 176 209 2688
2019-12-11 12:04:27 GMT 49.799255 8.166628 14,975 176 209 2688
2019-12-11 12:04:16 GMT 49.799255 8.166628 14,875 176 209 2688
2019-12-11 12:04:06 GMT 49.796417 8.191198 14,675 176 209 2688
2019-12-11 12:03:53 GMT 49.793575 8.234401 14,350 176 209 2688
2019-12-11 12:03:46 GMT 49.793575 8.234401 14,050 176 209 2688
2019-12-11 12:03:36 GMT 49.785152 8.254147 13,750 176 209 2688
2019-12-11 12:03:27 GMT 49.779797 8.279163 13,450 176 209 2688
2019-12-11 12:03:16 GMT 49.775284 8.301804 13,075 176 209 2688
2019-12-11 12:03:03 GMT 49.768021 8.331423 12,725 176 209 2688
2019-12-11 12:02:52 GMT 49.769417 8.351762 12,475 176 209 2688
2019-12-11 12:02:48 GMT 49.767323 8.362303 12,050 176 209 2688
2019-12-11 12:02:36 GMT 49.765041 8.376556 11,700 176 209 2688
2019-12-11 12:02:23 GMT 49.752193 8.418571 11,375 176 209 2688
2019-12-11 12:02:07 GMT 49.758896 8.458285 10,700 176 209 2688
2019-12-11 12:01:56 GMT 49.765831 8.462962 10,475 176 209 2688
2019-12-11 12:01:44 GMT 49.776493 8.479886 10,350 176 209 2688
2019-12-11 12:01:33 GMT 49.791481 8.489165 10,225 176 209 2688
2019-12-11 12:01:23 GMT 49.803493 8.497405 9,850 176 209 2688
2019-12-11 12:01:12 GMT 49.815315 8.506090 9,400 176 209 2688
2019-12-11 12:01:05 GMT 49.822906 8.509876 8,975 176 209 2688
2019-12-11 12:00:55 GMT 49.835102 8.517299 8,625 176 209 2688
2019-12-11 12:00:43 GMT 49.848415 8.525688 8,100 176 209 2688
2019-12-11 12:00:34 GMT 49.855396 8.528805 7,650 176 209 2688
2019-12-11 12:00:23 GMT 49.866199 8.532591 7,525 176 209 2688
2019-12-11 12:00:10 GMT 49.881607 8.534224 7,375 176 209 2688
2019-12-11 12:00:04 GMT 49.886494 8.534002 7,000 176 209 2688
2019-12-11 11:59:52 GMT 49.896782 8.533111 6,550 177 211 2624
2019-12-11 11:59:45 GMT 49.905117 8.532517 6,150 177 211 2624

Making use of Plane Finder data

You are free to use the raw flight data, aircraft information and images provided in this report for your own purposes provided the data is correctly attributed to Plane Finder. We ask that you please credit Plane Finder and link to planefinder.net in close proximity to the content.

Optionally one of the following logos (no smaller then 150x24px) can be used and must link to planefinder.net

Embedding the Plane Finder map

You are welcome to embed the Plane Finder playback map on your website to offer visitors a more interactive experience. We suggest using the following HTML code:

<iframe src="//planefinder.net/data/report/LH394-D-ACNA-7700-squawk-2019-12-11/map" width="800" height="600" seamless="seamless"></iframe>

Where our data comes from

Plane Finder has a global network of data feeds and antenna radars that receive data broadcast directly from aircraft. The primary technologies used are ADS-B and MLAT. We also show feeds from the FAA and a FLARM glider feed.

Click here to find out more about the Plane Finder network.

How we collect our data